Flight Track Log - Related Links

Times and Time Zones

All times are in EDT time to prevent confusion due to time zone crossing. See the AMF1840 flight status page for this flight to view local times or setup timezone preferences in your user account.

Time Position Orientation Groundspeed Altitude Reporting Facility
EDT Latitude Longitude Course Direction KTS MPH feet Rate Location/Type
Wed 08:37:03 AM 40.7931 -111.9981 337° Northwest 121 139 4,900  Level Salt Lake Center
Wed 08:37:39 AM 40.8122 -112.0086 337° Northwest 113 130 6,200 1,608 Climbing Salt Lake Center
Wed 08:38:40 AM 40.8453 -112.0228 342° North 127 146 7,500 1,185 Climbing Salt Lake Center
Wed 08:39:00 AM 40.8542 -112.0258 345° North 125 144 7,800 1,125 Climbing Salt Lake Center
Wed 08:40:00 AM 40.8892 -112.0408 342° North 132 152 9,000 1,140 Climbing Salt Lake Center
Wed 08:41:01 AM 40.9264 -112.0569 342° North 139 160 10,100 1,140 Climbing Salt Lake Center
Wed 08:42:01 AM 40.9639 -112.0400 19° North 150 173 11,300 1,190 Climbing Salt Lake Center
Wed 08:43:02 AM 40.9914 -111.9997 48° Northeast 147 169 12,500 1,091 Climbing Salt Lake Center
Wed 08:44:02 AM 41.0222 -111.9611 43° Northeast 153 176 13,500 1,041 Climbing Salt Lake Center
Wed 08:45:03 AM 41.0600 -111.9369 26° Northeast 151 174 14,600 744 Climbing Salt Lake Center
Wed 08:46:03 AM 41.0981 -111.9072 30° Northeast 160 184 15,000 198 Climbing Salt Lake Center
Wed 08:47:04 AM 41.1450 -111.8789 24° Northeast 182 209 15,000  Level Salt Lake Center
Wed 08:48:05 AM 41.1956 -111.8508 23° Northeast 195 224 15,000 50 Level Salt Lake Center
Wed 08:49:05 AM 41.2472 -111.8236 22° Northeast 198 228 15,100  Climbing Salt Lake Center
Wed 08:50:06 AM 41.3000 -111.7972 21° North 205 236 15,000 -50 Descending Salt Lake Center
Wed 08:51:06 AM 41.3506 -111.7692 23° Northeast 197 227 15,000 50 Level Salt Lake Center
Wed 08:52:07 AM 41.4017 -111.7431 21° North 197 227 15,100  Climbing Salt Lake Center
Wed 08:53:08 AM 41.4486 -111.7106 27° Northeast 191 220 15,000 -99 Descending Salt Lake Center
Wed 08:54:08 AM 41.4975 -111.6839 22° Northeast 190 219 14,900 50 Descending Salt Lake Center
Wed 08:55:09 AM 41.5500 -111.6656 15° North 194 223 15,100 98 Climbing Salt Lake Center
Wed 08:56:10 AM 41.6019 -111.6511 12° North 190 219 15,100  Level Salt Lake Center
Wed 08:57:10 AM 41.6519 -111.6244 22° Northeast 194 223 15,100  Level Salt Lake Center
Wed 08:58:11 AM 41.7022 -111.5903 27° Northeast 199 229 15,100 -98 Level Salt Lake Center
Wed 08:59:12 AM 41.7542 -111.5703 16° North 196 226 14,900 -50 Descending Salt Lake Center
Wed 09:00:12 AM 41.8161 -111.5458 16° North 193 222 15,000 50 Climbing Salt Lake Center
Wed 09:01:13 AM 41.8678 -111.5294 13° North 193 222 15,000  Level Salt Lake Center
Wed 09:02:14 AM 41.9169 -111.5067 19° North 189 217 15,000  Level Salt Lake Center
Wed 09:03:15 AM 41.9697 -111.4889 14° North 192 221 15,000 -50 Level Salt Lake Center
Wed 09:04:15 AM 42.0189 -111.4661 19° North 189 217 14,900  Descending Salt Lake Center
Wed 09:05:16 AM 42.0697 -111.4475 15° North 189 217 15,000 98 Climbing Salt Lake Center
Wed 09:06:17 AM 42.1164 -111.4206 23° Northeast 184 212 15,100 49 Climbing Salt Lake Center
Wed 09:07:18 AM 42.1658 -111.3917 23° Northeast 192 221 15,100 50 Level Salt Lake Center
Wed 09:08:18 AM 42.2158 -111.3719 16° North 188 216 15,200 50 Climbing Salt Lake Center
Wed 09:09:19 AM 42.2683 -111.3506 17° North 196 226 15,200 -49 Level Salt Lake Center
Wed 09:10:20 AM 42.3172 -111.3264 20° North 189 217 15,100 -98 Descending Salt Lake Center
Wed 09:11:21 AM 42.3678 -111.3017 20° North 192 221 15,000 -49 Descending Salt Lake Center
Wed 09:12:22 AM 42.4183 -111.2831 15° North 189 217 15,000 50 Level Salt Lake Center
Wed 09:13:22 AM 42.4700 -111.2614 17° North 193 222 15,100 99 Climbing Salt Lake Center
Wed 09:14:23 AM 42.5200 -111.2392 18° North 191 220 15,200 49 Climbing Salt Lake Center
Wed 09:15:24 AM 42.5694 -111.2142 20° North 189 217 15,200  Level Salt Lake Center
Wed 09:16:25 AM 42.6303 -111.1886 17° North 191 220 15,200  Level Salt Lake Center
Wed 09:17:26 AM 42.6806 -111.1622 21° North 194 223 15,200  Level Salt Lake Center
Wed 09:18:27 AM 42.7317 -111.1406 17° North 196 226 15,200 49 Level Salt Lake Center
Wed 09:19:28 AM 42.7831 -111.1186 17° North 195 224 15,300  Climbing Salt Lake Center
Wed 09:20:29 AM 42.8367 -111.1075 North 193 222 15,200 -49 Descending Salt Lake Center
Wed 09:21:30 AM 42.8914 -111.0967 North 197 227 15,200  Level Salt Lake Center
Wed 09:22:31 AM 42.9456 -111.0817 11° North 199 229 15,200 -99 Level Salt Lake Center
Wed 09:23:31 AM 42.9986 -111.0592 17° North 199 229 15,000 -50 Descending Salt Lake Center
Wed 09:24:32 AM 43.0489 -111.0269 25° Northeast 201 231 15,100  Climbing Salt Lake Center
Wed 09:25:33 AM 43.1031 -111.0058 16° North 203 234 15,000 -246 Descending Salt Lake Center
Wed 09:26:34 AM 43.1572 -110.9789 20° North 207 238 14,600 -537 Descending Salt Lake Center
Wed 09:27:36 AM 43.2156 -110.9556 16° North 216 249 13,900 -689 Descending Salt Lake Center
Wed 09:28:36 AM 43.2708 -110.9231 23° Northeast 216 249 13,200 -446 Descending Salt Lake Center
Wed 09:29:37 AM 43.3356 -110.8872 22° Northeast 210 242 13,000 -148 Descending Salt Lake Center
Wed 09:30:38 AM 43.3839 -110.8547 26° Northeast 197 227 12,900 -927 Descending Salt Lake Center
Wed 09:31:40 AM 43.4344 -110.8314 19° North 194 223 11,100 -1,610 Descending Salt Lake Center
Wed 09:32:41 AM 43.4786 -110.8083 21° North 183 211 9,600 -1,279 Descending Salt Lake Center
Wed 09:33:42 AM 43.5197 -110.7861 21° North 170 196 8,500 -1,033 Descending Salt Lake Center
Wed 09:34:43 AM 43.5553 -110.7686 20° North 152 175 7,500 -934 Descending Salt Lake Center
Wed 09:35:44 AM 43.5867 -110.7478 26° Northeast 138 159 6,600 -885 Descending Salt Lake Center

Login

Don't have an account? Register now (free) for customized features, flight alerts, and more!